Fullerville, New York
Current Conditions -  °F | °C
As of 4:58 AM on Tuesday 21 Oct 2014 (Local Time) from KGTB Reporting Station
Overcast Overcast  
Wind Chill: 41°   Ceiling: 3700
Heat Index: 46°   Visibility: 10mi
Dew Point: 44°   Wind: 10mph
Humidity: 94%   Direction: 140°SE
Pressure: 29.83"   Gusts: NA
Location:  44.3309°N, 75.4775°W
Report Text: KGTB 210858Z AUTO 14009KT 10SM SCT029 OVC037 08/07 A2983 RMK AO2 RAB0806E0841DZE0806B0839E0840 SLP104 P0001 60002 T00780069 55004
Loading
Personal Weather Stations






























Interactive Weather Map
Tropical Storm Tracking
New forecast layout! Learn more

10-Day Weather Forecast

Advertisements
Track Severe Weather on mobile